Time;durP1;ratioP1;P1;durP2;ratioP2;P2;SDS_P1;SDS_P2;PMS_P1;PMS_P2;Temp;Humidity;BMP_temperature;BMP_pressure;BME280_temperature;BME280_humidity;BME280_pressure;Samples;Min_cycle;Max_cycle;Signal;HPM_P1;HPM_P2
2022/07/29 00:02:08;;;;;;;5.10;1.60;;;;;;;;;;5049731;28;20094;-66
2022/07/29 00:04:35;;;;;;;2.95;1.65;;;;;;;;;;5040133;28;20037;-67
2022/07/29 00:07:00;;;;;;;6.70;1.73;;;;;;;;;;5032881;28;20033;-66
2022/07/29 00:09:25;;;;;;;6.63;1.55;;;;;;;;;;5037234;28;20102;-67
2022/07/29 00:11:51;;;;;;;5.82;1.65;;;;;;;;;;5048033;28;20429;-67
2022/07/29 00:14:17;;;;;;;3.97;1.70;;;;;;;;;;5036957;28;20116;-66
2022/07/29 00:16:42;;;;;;;4.68;1.80;;;;;;;;;;5032101;28;20095;-67
2022/07/29 00:19:07;;;;;;;5.15;1.67;;;;;;;;;;5035126;28;20030;-66
2022/07/29 00:21:33;;;;;;;4.30;1.70;;;;;;;;;;5031824;28;20069;-67
2022/07/29 00:23:58;;;;;;;8.05;1.50;;;;;;;;;;5045512;28;20061;-66
2022/07/29 00:26:24;;;;;;;4.75;1.55;;;;;;;;;;5032084;28;20069;-66
2022/07/29 00:28:49;;;;;;;5.63;1.70;;;;;;;;;;5033300;28;20064;-66
2022/07/29 00:31:14;;;;;;;5.38;1.65;;;;;;;;;;5035427;28;20025;-67
2022/07/29 00:33:40;;;;;;;5.05;1.63;;;;;;;;;;5032828;28;20048;-66
2022/07/29 00:36:05;;;;;;;4.20;1.52;;;;;;;;;;5029551;28;20092;-65
2022/07/29 00:38:31;;;;;;;6.95;1.73;;;;;;;;;;5034353;28;20025;-66
2022/07/29 00:40:56;;;;;;;2.72;1.60;;;;;;;;;;5040987;28;20455;-65
2022/07/29 00:43:22;;;;;;;6.15;1.60;;;;;;;;;;5031948;28;20037;-69
2022/07/29 00:45:47;;;;;;;5.70;1.60;;;;;;;;;;5032606;28;20108;-66
2022/07/29 00:48:13;;;;;;;3.60;1.70;;;;;;;;;;5031916;28;20431;-66
2022/07/29 00:50:38;;;;;;;5.78;1.58;;;;;;;;;;5019643;28;20536;-66
2022/07/29 00:53:18;;;;;;;4.68;1.60;;;;;;;;;;5052382;28;20041;-66
2022/07/29 00:55:43;;;;;;;7.40;1.90;;;;;;;;;;5021183;28;20684;-66
2022/07/29 00:58:12;;;;;;;5.05;1.60;;;;;;;;;;5016008;28;20522;-66
2022/07/29 01:00:37;;;;;;;6.50;1.70;;;;;;;;;;5051084;28;20024;-66
2022/07/29 01:03:03;;;;;;;5.25;1.50;;;;;;;;;;5043833;28;20040;-66
2022/07/29 01:05:29;;;;;;;3.67;1.58;;;;;;;;;;5030980;28;20525;-67
2022/07/29 01:07:55;;;;;;;4.32;1.40;;;;;;;;;;5038740;28;20071;-66
2022/07/29 01:10:22;;;;;;;4.78;1.83;;;;;;;;;;5046577;28;20041;-67
2022/07/29 01:12:50;;;;;;;2.70;1.50;;;;;;;;;;5023439;28;20461;-67
2022/07/29 01:15:16;;;;;;;4.28;1.70;;;;;;;;;;5030567;28;20045;-67
2022/07/29 01:17:41;;;;;;;6.10;1.50;;;;;;;;;;5040230;28;20033;-68
2022/07/29 01:20:32;;;;;;;4.22;1.40;;;;;;;;;;5034113;28;20040;-67
2022/07/29 01:23:10;;;;;;;3.60;1.50;;;;;;;;;;5038117;28;20509;-67
2022/07/29 01:25:42;;;;;;;3.47;1.50;;;;;;;;;;5017875;28;20025;-67
2022/07/29 01:28:49;;;;;;;4.22;1.60;;;;;;;;;;5032803;28;20113;-67
2022/07/29 01:31:22;;;;;;;5.72;1.75;;;;;;;;;;5042504;28;20036;-65
2022/07/29 01:33:54;;;;;;;5.28;1.70;;;;;;;;;;5044994;28;20029;-66
2022/07/29 01:36:37;;;;;;;4.70;1.70;;;;;;;;;;5046492;28;20036;-66
2022/07/29 01:39:10;;;;;;;3.53;1.80;;;;;;;;;;5051062;28;20028;-66
2022/07/29 01:41:40;;;;;;;2.78;1.50;;;;;;;;;;5047757;28;20470;-66
2022/07/29 01:44:19;;;;;;;3.75;1.50;;;;;;;;;;5032324;28;20072;-66
2022/07/29 01:46:52;;;;;;;3.65;1.50;;;;;;;;;;5045354;28;20103;-66
2022/07/29 01:49:29;;;;;;;5.53;1.60;;;;;;;;;;5040230;28;20048;-66
2022/07/29 01:52:01;;;;;;;2.72;1.52;;;;;;;;;;5033986;28;20514;-66
2022/07/29 01:54:42;;;;;;;6.80;1.85;;;;;;;;;;5030563;28;20045;-68
2022/07/29 01:57:11;;;;;;;6.70;1.70;;;;;;;;;;5031368;28;20050;-65
2022/07/29 01:59:37;;;;;;;5.05;1.63;;;;;;;;;;5029786;28;20042;-65
2022/07/29 02:02:04;;;;;;;5.57;1.63;;;;;;;;;;5031630;28;20029;-66
2022/07/29 02:04:33;;;;;;;5.32;1.50;;;;;;;;;;5045279;28;20033;-66
2022/07/29 02:07:02;;;;;;;12.60;1.50;;;;;;;;;;5053585;28;20037;-65
2022/07/29 02:09:29;;;;;;;2.53;1.60;;;;;;;;;;5052703;28;20102;-69
2022/07/29 02:11:56;;;;;;;7.20;1.70;;;;;;;;;;5040290;28;20037;-66
2022/07/29 02:14:22;;;;;;;5.60;1.90;;;;;;;;;;5043788;28;20384;-66
2022/07/29 02:16:52;;;;;;;3.65;1.80;;;;;;;;;;5040318;28;20160;-66
2022/07/29 02:19:20;;;;;;;3.90;1.73;;;;;;;;;;5035335;28;20037;-66
2022/07/29 02:21:46;;;;;;;6.40;1.88;;;;;;;;;;5038751;28;20150;-66
2022/07/29 02:24:13;;;;;;;5.93;1.80;;;;;;;;;;5040144;28;20049;-66
2022/07/29 02:26:41;;;;;;;3.08;1.60;;;;;;;;;;5033731;28;20036;-66
2022/07/29 02:29:08;;;;;;;5.88;1.83;;;;;;;;;;5038378;28;20036;-66
2022/07/29 02:31:36;;;;;;;3.72;1.55;;;;;;;;;;5037591;28;20087;-66
2022/07/29 02:34:08;;;;;;;2.95;1.52;;;;;;;;;;5040524;28;20112;-65
2022/07/29 02:36:34;;;;;;;6.07;1.50;;;;;;;;;;5049873;28;20047;-67
2022/07/29 02:39:00;;;;;;;2.85;1.60;;;;;;;;;;5043719;28;20037;-65
2022/07/29 02:41:30;;;;;;;3.45;1.60;;;;;;;;;;5053852;28;20147;-66
2022/07/29 02:44:00;;;;;;;4.40;1.70;;;;;;;;;;5054448;28;20186;-66
2022/07/29 02:46:32;;;;;;;5.20;1.97;;;;;;;;;;5051022;28;20029;-66
2022/07/29 02:49:09;;;;;;;7.43;1.70;;;;;;;;;;5041612;28;20270;-64
2022/07/29 02:51:44;;;;;;;4.93;1.67;;;;;;;;;;5040457;28;20064;-66
2022/07/29 02:54:14;;;;;;;8.63;1.90;;;;;;;;;;5039954;28;20473;-67
2022/07/29 02:56:42;;;;;;;4.90;1.90;;;;;;;;;;5050261;28;20515;-67
2022/07/29 02:59:11;;;;;;;4.78;1.70;;;;;;;;;;5032054;28;20034;-67
2022/07/29 03:01:41;;;;;;;5.25;1.77;;;;;;;;;;5031621;28;20026;-66
2022/07/29 03:04:08;;;;;;;6.70;1.90;;;;;;;;;;5031817;28;20026;-66
2022/07/29 03:06:35;;;;;;;4.85;1.60;;;;;;;;;;5031975;28;20045;-66
2022/07/29 03:09:01;;;;;;;7.15;1.90;;;;;;;;;;5045924;28;20056;-66
2022/07/29 03:11:27;;;;;;;4.30;1.80;;;;;;;;;;5047437;28;20377;-66
2022/07/29 03:13:54;;;;;;;5.00;1.50;;;;;;;;;;5031318;28;20025;-66
2022/07/29 03:16:21;;;;;;;3.30;1.60;;;;;;;;;;5032514;28;20030;-67
2022/07/29 03:18:47;;;;;;;4.95;1.98;;;;;;;;;;5042049;28;20056;-67
2022/07/29 03:21:13;;;;;;;6.20;2.00;;;;;;;;;;5033689;28;20470;-66
2022/07/29 03:23:43;;;;;;;5.95;1.80;;;;;;;;;;5042022;28;20042;-66
2022/07/29 03:26:09;;;;;;;3.25;1.70;;;;;;;;;;5032058;28;20075;-68
2022/07/29 03:28:34;;;;;;;6.38;1.73;;;;;;;;;;5031016;28;20065;-69
2022/07/29 03:31:00;;;;;;;6.55;1.70;;;;;;;;;;5032264;28;20041;-69
2022/07/29 03:33:25;;;;;;;3.85;1.70;;;;;;;;;;5035614;28;20045;-67
2022/07/29 03:35:51;;;;;;;6.15;1.85;;;;;;;;;;5030358;28;20292;-67
2022/07/29 03:38:16;;;;;;;4.75;1.73;;;;;;;;;;5032719;28;20075;-67
2022/07/29 03:40:49;;;;;;;7.50;2.00;;;;;;;;;;5038624;28;20465;-67
2022/07/29 03:43:17;;;;;;;4.43;1.60;;;;;;;;;;5052376;28;20036;-66
2022/07/29 03:45:45;;;;;;;7.00;1.80;;;;;;;;;;5049256;28;20036;-67
2022/07/29 03:48:15;;;;;;;5.47;1.85;;;;;;;;;;5047161;28;20039;-67
2022/07/29 03:50:40;;;;;;;5.50;1.60;;;;;;;;;;5031183;28;20080;-68
2022/07/29 03:53:06;;;;;;;5.70;1.73;;;;;;;;;;5018846;28;20037;-66
2022/07/29 03:55:37;;;;;;;7.10;1.90;;;;;;;;;;5006904;28;1121332;-69
2022/07/29 03:58:03;;;;;;;5.28;1.70;;;;;;;;;;5051313;28;20342;-66
2022/07/29 04:00:29;;;;;;;3.05;1.70;;;;;;;;;;5052853;28;20138;-66
2022/07/29 04:02:56;;;;;;;8.45;1.88;;;;;;;;;;5038175;28;20037;-66
2022/07/29 04:05:21;;;;;;;5.97;1.88;;;;;;;;;;5015528;28;20035;-66
2022/07/29 04:07:47;;;;;;;4.53;1.70;;;;;;;;;;5043931;28;20037;-66
2022/07/29 04:10:15;;;;;;;7.47;1.80;;;;;;;;;;5053267;28;20087;-66
2022/07/29 04:12:41;;;;;;;6.32;1.80;;;;;;;;;;5033536;28;20025;-68
2022/07/29 04:15:07;;;;;;;7.13;2.20;;;;;;;;;;5030348;28;20544;-66
2022/07/29 04:17:32;;;;;;;2.92;1.70;;;;;;;;;;5037976;28;20143;-68
2022/07/29 04:19:58;;;;;;;6.00;1.80;;;;;;;;;;5032637;28;20045;-66
2022/07/29 04:22:23;;;;;;;3.28;1.80;;;;;;;;;;5032239;28;20087;-65
2022/07/29 04:24:48;;;;;;;3.38;1.67;;;;;;;;;;5037800;28;20112;-66
2022/07/29 04:27:14;;;;;;;5.15;1.98;;;;;;;;;;5042917;28;20036;-66
2022/07/29 04:29:39;;;;;;;5.47;2.00;;;;;;;;;;5033840;28;20409;-69
2022/07/29 04:32:05;;;;;;;6.53;2.00;;;;;;;;;;5034350;28;20072;-70
2022/07/29 04:34:31;;;;;;;4.82;2.03;;;;;;;;;;5018323;28;20052;-69
2022/07/29 04:36:56;;;;;;;7.47;2.00;;;;;;;;;;5031840;28;20593;-66
2022/07/29 04:39:21;;;;;;;7.57;2.00;;;;;;;;;;5040975;28;20060;-66
2022/07/29 04:41:53;;;;;;;5.65;2.10;;;;;;;;;;5031598;28;20033;-66
2022/07/29 04:44:18;;;;;;;6.15;2.00;;;;;;;;;;5040935;28;20030;-66
2022/07/29 04:46:44;;;;;;;4.30;2.00;;;;;;;;;;5051254;28;20094;-66
2022/07/29 04:49:10;;;;;;;9.38;2.08;;;;;;;;;;5034637;28;20371;-66
2022/07/29 04:51:35;;;;;;;5.85;2.10;;;;;;;;;;5031886;28;20088;-68
2022/07/29 04:54:01;;;;;;;5.72;2.10;;;;;;;;;;5044228;28;20037;-67
2022/07/29 04:56:27;;;;;;;5.90;1.98;;;;;;;;;;5035064;28;20056;-66
2022/07/29 04:58:53;;;;;;;3.95;2.10;;;;;;;;;;5045091;28;20032;-65
2022/07/29 05:01:18;;;;;;;4.68;2.30;;;;;;;;;;5032975;28;20116;-68
2022/07/29 05:03:45;;;;;;;5.30;2.53;;;;;;;;;;5032371;28;20052;-70
2022/07/29 05:06:10;;;;;;;6.53;2.60;;;;;;;;;;5045267;28;20140;-69
2022/07/29 05:08:36;;;;;;;5.90;3.03;;;;;;;;;;5046496;28;20523;-70
2022/07/29 05:11:01;;;;;;;5.28;2.72;;;;;;;;;;5049895;28;20036;-70
2022/07/29 05:13:26;;;;;;;5.18;2.97;;;;;;;;;;5041100;28;20056;-71
2022/07/29 05:15:52;;;;;;;4.88;2.67;;;;;;;;;;5035618;28;20039;-72
2022/07/29 05:18:17;;;;;;;6.28;2.83;;;;;;;;;;5049588;28;20036;-69
2022/07/29 05:20:43;;;;;;;5.32;3.10;;;;;;;;;;5049424;28;20035;-74
2022/07/29 05:23:08;;;;;;;7.28;3.03;;;;;;;;;;5049177;28;20052;-70
2022/07/29 05:25:34;;;;;;;5.60;3.03;;;;;;;;;;5038208;28;20120;-71
2022/07/29 05:27:59;;;;;;;7.78;3.33;;;;;;;;;;5050847;28;20139;-71
2022/07/29 05:30:25;;;;;;;10.63;3.00;;;;;;;;;;5050428;28;20029;-71
2022/07/29 05:32:50;;;;;;;8.00;3.22;;;;;;;;;;5032908;28;20451;-70
2022/07/29 05:35:16;;;;;;;6.78;3.72;;;;;;;;;;5039451;28;20037;-70
2022/07/29 05:37:41;;;;;;;6.22;3.08;;;;;;;;;;5049056;28;20025;-74
2022/07/29 05:40:08;;;;;;;7.72;2.90;;;;;;;;;;5048625;28;20043;-70
2022/07/29 05:42:34;;;;;;;5.20;3.00;;;;;;;;;;5051319;28;20068;-71
2022/07/29 05:45:00;;;;;;;8.48;3.30;;;;;;;;;;5042803;28;20032;-71
2022/07/29 05:47:26;;;;;;;5.90;3.03;;;;;;;;;;5051301;28;20029;-70
2022/07/29 05:49:52;;;;;;;6.57;3.08;;;;;;;;;;5048680;28;20104;-68
2022/07/29 05:52:17;;;;;;;4.55;3.00;;;;;;;;;;5043110;28;20120;-68
2022/07/29 05:54:43;;;;;;;5.45;3.08;;;;;;;;;;5029149;28;20104;-72
2022/07/29 05:57:14;;;;;;;5.97;3.00;;;;;;;;;;5040514;28;20555;-69
2022/07/29 05:59:40;;;;;;;7.07;3.10;;;;;;;;;;5039894;28;20433;-76
2022/07/29 06:02:05;;;;;;;4.88;2.95;;;;;;;;;;5050981;28;20021;-69
2022/07/29 06:04:31;;;;;;;9.88;3.08;;;;;;;;;;5046301;28;20091;-71
2022/07/29 06:06:57;;;;;;;5.82;2.67;;;;;;;;;;5042114;28;20025;-68
2022/07/29 06:09:23;;;;;;;8.80;4.80;;;;;;;;;;5047900;28;20032;-74
2022/07/29 06:11:48;;;;;;;8.48;3.13;;;;;;;;;;5048731;28;20033;-74
2022/07/29 06:14:14;;;;;;;5.90;2.78;;;;;;;;;;5046885;28;20036;-71
2022/07/29 06:16:39;;;;;;;6.88;3.10;;;;;;;;;;5030510;28;20453;-72
2022/07/29 06:19:04;;;;;;;6.75;3.20;;;;;;;;;;5029875;28;20417;-72
2022/07/29 06:21:30;;;;;;;8.07;3.15;;;;;;;;;;5033473;28;20036;-69
2022/07/29 06:23:55;;;;;;;7.50;3.08;;;;;;;;;;5029767;28;20120;-72
2022/07/29 06:26:24;;;;;;;5.63;3.13;;;;;;;;;;5048742;28;20036;-69
2022/07/29 06:28:49;;;;;;;6.53;3.00;;;;;;;;;;5050239;28;20029;-70
2022/07/29 06:31:14;;;;;;;7.10;3.03;;;;;;;;;;5049099;28;20378;-71
2022/07/29 06:33:40;;;;;;;6.53;2.97;;;;;;;;;;5034643;28;20034;-73
2022/07/29 06:36:05;;;;;;;5.43;3.03;;;;;;;;;;5031060;28;20029;-70
2022/07/29 06:38:32;;;;;;;4.97;3.00;;;;;;;;;;5042197;28;20048;-74
2022/07/29 06:43:33;;;;;;;9.23;2.75;;;;;;;;;;5043871;28;20036;-69
2022/07/29 06:46:01;;;;;;;5.45;2.80;;;;;;;;;;5049741;28;20032;-68
2022/07/29 06:48:26;;;;;;;10.32;3.25;;;;;;;;;;5046556;28;20115;-69
2022/07/29 06:50:52;;;;;;;4.50;2.70;;;;;;;;;;5053305;28;20136;-69
2022/07/29 06:53:17;;;;;;;5.47;2.80;;;;;;;;;;5052406;28;20075;-70
2022/07/29 06:55:43;;;;;;;6.03;2.50;;;;;;;;;;5050814;28;20493;-72
2022/07/29 06:58:08;;;;;;;10.88;2.58;;;;;;;;;;5050541;28;20037;-69
2022/07/29 07:00:34;;;;;;;5.72;2.47;;;;;;;;;;5051630;28;20036;-68
2022/07/29 07:03:01;;;;;;;5.63;2.63;;;;;;;;;;5041451;28;20462;-68
2022/07/29 07:05:26;;;;;;;3.60;2.45;;;;;;;;;;5034804;28;20068;-70
2022/07/29 07:07:51;;;;;;;6.38;2.80;;;;;;;;;;5034515;28;20456;-70
2022/07/29 07:10:17;;;;;;;6.18;2.72;;;;;;;;;;5034022;28;20029;-70
2022/07/29 07:12:42;;;;;;;8.40;2.40;;;;;;;;;;5043885;28;20155;-71
2022/07/29 07:15:08;;;;;;;6.25;2.53;;;;;;;;;;5054031;28;20040;-70
2022/07/29 07:17:33;;;;;;;6.57;2.33;;;;;;;;;;5043501;28;20112;-69
2022/07/29 07:19:59;;;;;;;11.45;3.00;;;;;;;;;;5043141;28;20044;-69
2022/07/29 07:22:24;;;;;;;7.75;2.60;;;;;;;;;;5052011;28;20484;-70
2022/07/29 07:24:50;;;;;;;6.85;2.60;;;;;;;;;;5052745;28;20029;-71
2022/07/29 07:27:15;;;;;;;9.85;3.20;;;;;;;;;;5049951;28;20069;-70
2022/07/29 07:29:40;;;;;;;6.65;3.00;;;;;;;;;;5051975;28;20037;-70
2022/07/29 07:32:07;;;;;;;9.68;2.97;;;;;;;;;;5053617;28;20024;-70
2022/07/29 07:34:32;;;;;;;5.45;2.67;;;;;;;;;;5051924;28;20045;-69
2022/07/29 07:36:58;;;;;;;4.93;2.85;;;;;;;;;;5052916;28;20039;-67
2022/07/29 07:39:23;;;;;;;8.35;2.92;;;;;;;;;;5051066;28;20408;-69
2022/07/29 07:41:49;;;;;;;9.50;3.30;;;;;;;;;;5050882;28;20029;-68
2022/07/29 07:44:14;;;;;;;6.20;2.72;;;;;;;;;;5052299;28;20109;-66
2022/07/29 07:46:40;;;;;;;7.63;2.70;;;;;;;;;;5053195;28;20480;-70
2022/07/29 07:49:05;;;;;;;6.13;2.70;;;;;;;;;;5052622;28;20033;-71
2022/07/29 07:51:30;;;;;;;4.93;2.50;;;;;;;;;;5051938;28;20029;-65
2022/07/29 07:53:56;;;;;;;8.27;2.70;;;;;;;;;;5042688;28;20485;-65
2022/07/29 07:56:21;;;;;;;7.22;2.78;;;;;;;;;;5037427;28;20075;-65
2022/07/29 07:58:46;;;;;;;7.72;2.72;;;;;;;;;;5047762;28;20086;-64
2022/07/29 08:01:12;;;;;;;10.25;2.90;;;;;;;;;;5051740;28;20405;-64
2022/07/29 08:03:38;;;;;;;4.60;2.60;;;;;;;;;;5050685;28;20132;-64
2022/07/29 08:06:04;;;;;;;4.32;2.65;;;;;;;;;;5052180;28;20037;-64
2022/07/29 08:08:29;;;;;;;5.00;2.47;;;;;;;;;;5051753;28;20452;-63
2022/07/29 08:10:55;;;;;;;5.97;2.50;;;;;;;;;;5052106;28;20041;-64
2022/07/29 08:13:23;;;;;;;10.57;3.10;;;;;;;;;;5046133;28;20116;-65
2022/07/29 08:15:57;;;;;;;8.85;2.92;;;;;;;;;;5034168;28;20044;-63
2022/07/29 08:18:31;;;;;;;4.38;2.60;;;;;;;;;;5046043;28;20090;-61
2022/07/29 08:20:57;;;;;;;6.95;3.13;;;;;;;;;;5046014;28;20060;-64
2022/07/29 08:23:23;;;;;;;4.38;2.47;;;;;;;;;;5033077;28;20045;-64
2022/07/29 08:25:49;;;;;;;8.77;2.47;;;;;;;;;;5047564;28;20087;-64
2022/07/29 08:28:15;;;;;;;5.53;2.85;;;;;;;;;;5032530;28;20029;-64
2022/07/29 08:30:41;;;;;;;6.05;2.45;;;;;;;;;;5032345;28;20446;-63
2022/07/29 08:33:06;;;;;;;8.93;3.25;;;;;;;;;;5043752;28;20151;-64
2022/07/29 08:35:31;;;;;;;7.05;2.75;;;;;;;;;;5031061;28;20106;-64
2022/07/29 08:37:58;;;;;;;8.70;2.88;;;;;;;;;;5013645;28;20466;-65
2022/07/29 08:40:24;;;;;;;6.75;3.28;;;;;;;;;;5032216;28;20034;-61
2022/07/29 08:42:50;;;;;;;7.72;3.17;;;;;;;;;;5031696;28;20040;-64
2022/07/29 08:45:16;;;;;;;6.13;2.90;;;;;;;;;;5046675;28;20049;-64
2022/07/29 08:47:44;;;;;;;4.90;2.88;;;;;;;;;;5046454;28;20394;-64
2022/07/29 08:50:10;;;;;;;8.05;3.20;;;;;;;;;;5032065;28;20163;-63
2022/07/29 08:52:38;;;;;;;8.20;2.90;;;;;;;;;;5033507;28;20029;-65
2022/07/29 08:55:06;;;;;;;9.10;3.25;;;;;;;;;;5050271;28;20615;-64
2022/07/29 08:57:33;;;;;;;6.22;2.85;;;;;;;;;;5047994;28;20128;-64
2022/07/29 09:00:00;;;;;;;4.53;3.20;;;;;;;;;;5051202;28;20166;-66
2022/07/29 09:02:29;;;;;;;5.88;2.90;;;;;;;;;;5051387;28;20037;-64
2022/07/29 09:04:58;;;;;;;5.15;3.00;;;;;;;;;;5051480;28;20112;-64
2022/07/29 09:07:24;;;;;;;9.20;3.17;;;;;;;;;;5046285;28;20467;-65
2022/07/29 09:09:50;;;;;;;5.80;3.38;;;;;;;;;;5050715;28;20028;-66
2022/07/29 09:12:16;;;;;;;7.88;3.60;;;;;;;;;;5037414;28;20502;-65
2022/07/29 09:14:41;;;;;;;10.50;4.10;;;;;;;;;;5032102;28;20075;-65
2022/07/29 09:17:07;;;;;;;7.93;3.50;;;;;;;;;;5039909;28;20041;-66
2022/07/29 09:19:34;;;;;;;6.85;3.67;;;;;;;;;;5051533;28;20549;-66
2022/07/29 09:22:02;;;;;;;7.50;3.42;;;;;;;;;;5046371;28;20033;-64
2022/07/29 09:24:42;;;;;;;7.20;3.33;;;;;;;;;;5051653;28;20032;-63
2022/07/29 09:27:22;;;;;;;7.65;3.42;;;;;;;;;;5031377;28;20037;-64
2022/07/29 09:30:05;;;;;;;12.75;4.30;;;;;;;;;;5030786;28;20045;-65
2022/07/29 09:32:32;;;;;;;6.05;3.17;;;;;;;;;;5051743;28;20079;-64
2022/07/29 09:35:17;;;;;;;7.50;3.47;;;;;;;;;;5042999;28;20100;-64
2022/07/29 09:37:44;;;;;;;5.22;3.30;;;;;;;;;;5037347;28;20056;-63
2022/07/29 09:40:18;;;;;;;6.30;3.50;;;;;;;;;;5036757;28;20030;-65
2022/07/29 09:42:46;;;;;;;9.65;3.60;;;;;;;;;;5038441;28;20470;-64
2022/07/29 09:45:25;;;;;;;6.38;3.50;;;;;;;;;;5032582;28;20045;-65
2022/07/29 09:47:50;;;;;;;4.45;3.08;;;;;;;;;;5030913;28;20467;-64
2022/07/29 09:50:18;;;;;;;5.93;2.80;;;;;;;;;;5031173;28;20083;-65
2022/07/29 09:52:49;;;;;;;6.18;3.08;;;;;;;;;;5031433;28;20104;-65
2022/07/29 09:55:15;;;;;;;6.45;3.25;;;;;;;;;;5037951;28;20502;-64
2022/07/29 09:57:41;;;;;;;7.60;3.20;;;;;;;;;;5031173;28;20049;-64
2022/07/29 10:00:19;;;;;;;8.23;3.17;;;;;;;;;;5047947;28;20029;-63
2022/07/29 10:02:46;;;;;;;8.48;3.30;;;;;;;;;;5051133;28;20033;-63
2022/07/29 10:05:19;;;;;;;9.45;3.55;;;;;;;;;;5047563;28;20155;-64
2022/07/29 10:07:51;;;;;;;11.73;3.72;;;;;;;;;;5050828;28;20033;-63
2022/07/29 10:10:25;;;;;;;6.53;3.65;;;;;;;;;;5046667;28;20047;-64
2022/07/29 10:12:57;;;;;;;8.85;3.90;;;;;;;;;;5031716;28;20037;-65
2022/07/29 10:15:25;;;;;;;7.80;3.85;;;;;;;;;;5050437;28;20456;-64
2022/07/29 10:17:52;;;;;;;7.82;4.10;;;;;;;;;;5033370;28;20386;-63
2022/07/29 10:20:19;;;;;;;9.35;5.55;;;;;;;;;;5049994;28;20420;-63
2022/07/29 10:22:47;;;;;;;7.57;4.50;;;;;;;;;;5035821;28;20140;-63
2022/07/29 10:25:13;;;;;;;10.32;5.00;;;;;;;;;;5033504;28;20033;-62
2022/07/29 10:27:39;;;;;;;10.00;4.80;;;;;;;;;;5048781;28;20058;-63
2022/07/29 10:30:06;;;;;;;7.43;4.70;;;;;;;;;;5053550;28;20227;-63
2022/07/29 10:32:53;;;;;;;7.45;4.47;;;;;;;;;;5044068;28;20093;-63
2022/07/29 10:35:27;;;;;;;9.20;4.80;;;;;;;;;;5054730;28;20108;-63
2022/07/29 10:38:04;;;;;;;9.95;4.80;;;;;;;;;;5052950;28;20040;-64
2022/07/29 10:43:36;;;;;;;9.20;4.78;;;;;;;;;;5052938;28;20059;-63
2022/07/29 10:46:02;;;;;;;11.13;4.63;;;;;;;;;;5046906;28;20029;-62
2022/07/29 10:48:28;;;;;;;7.93;4.35;;;;;;;;;;5042205;28;20026;-63
2022/07/29 10:51:04;;;;;;;7.05;4.55;;;;;;;;;;5015520;28;20064;-64
2022/07/29 10:53:48;;;;;;;9.60;4.80;;;;;;;;;;5029418;28;20056;-63
2022/07/29 10:56:33;;;;;;;6.50;3.92;;;;;;;;;;5032712;28;20088;-63
2022/07/29 10:59:20;;;;;;;9.57;4.20;;;;;;;;;;5035486;28;20386;-63
2022/07/29 11:01:52;;;;;;;5.88;3.80;;;;;;;;;;5039416;28;20124;-63
2022/07/29 11:04:44;;;;;;;8.02;3.80;;;;;;;;;;5034484;28;20025;-62
2022/07/29 11:07:10;;;;;;;7.57;3.55;;;;;;;;;;5032223;28;20053;-62
2022/07/29 11:09:35;;;;;;;9.07;3.63;;;;;;;;;;5033596;28;20108;-62
2022/07/29 11:12:01;;;;;;;7.93;3.70;;;;;;;;;;5033243;28;20176;-63
2022/07/29 11:14:51;;;;;;;7.35;3.50;;;;;;;;;;5034086;28;20037;-63
2022/07/29 11:17:17;;;;;;;6.18;3.40;;;;;;;;;;5033943;28;20057;-64
2022/07/29 11:19:44;;;;;;;6.57;3.50;;;;;;;;;;5039844;28;20082;-63
2022/07/29 11:22:10;;;;;;;8.05;3.60;;;;;;;;;;5051903;28;20943;-63
2022/07/29 11:24:36;;;;;;;7.47;3.47;;;;;;;;;;5038621;28;20058;-62
2022/07/29 11:27:19;;;;;;;7.53;3.55;;;;;;;;;;5052688;28;20028;-62
2022/07/29 11:29:55;;;;;;;10.88;3.40;;;;;;;;;;5035756;28;20076;-62
2022/07/29 11:32:21;;;;;;;7.30;3.33;;;;;;;;;;5045022;28;20067;-64
2022/07/29 11:34:48;;;;;;;10.13;3.70;;;;;;;;;;5050384;28;20028;-63
2022/07/29 11:37:14;;;;;;;6.03;3.63;;;;;;;;;;5033317;28;20061;-63
2022/07/29 11:39:58;;;;;;;11.82;3.60;;;;;;;;;;5033568;28;20052;-63
2022/07/29 11:42:23;;;;;;;6.40;3.40;;;;;;;;;;5033749;28;20053;-64
2022/07/29 11:45:05;;;;;;;7.50;3.40;;;;;;;;;;5022000;28;20060;-64
2022/07/29 11:47:31;;;;;;;7.00;3.47;;;;;;;;;;5053384;28;20084;-64
2022/07/29 11:50:00;;;;;;;5.78;3.17;;;;;;;;;;5051928;28;20035;-64
2022/07/29 11:52:46;;;;;;;6.57;3.28;;;;;;;;;;5052794;28;20068;-64
2022/07/29 11:55:14;;;;;;;7.57;3.15;;;;;;;;;;5038937;28;20083;-63
2022/07/29 11:57:59;;;;;;;7.15;3.42;;;;;;;;;;5033451;28;20061;-64
2022/07/29 12:00:37;;;;;;;5.97;3.00;;;;;;;;;;5033109;28;20029;-64
2022/07/29 12:03:05;;;;;;;6.57;2.70;;;;;;;;;;5032434;28;20458;-64
2022/07/29 12:05:41;;;;;;;10.57;2.92;;;;;;;;;;5015448;28;20035;-64
2022/07/29 12:08:09;;;;;;;6.22;2.70;;;;;;;;;;5034834;28;20034;-64
2022/07/29 12:10:36;;;;;;;7.38;2.80;;;;;;;;;;5053067;28;20124;-66
2022/07/29 12:13:01;;;;;;;5.90;2.60;;;;;;;;;;5050318;28;20025;-65
2022/07/29 12:15:27;;;;;;;6.90;3.00;;;;;;;;;;5052869;28;20054;-65
2022/07/29 12:17:52;;;;;;;6.07;2.80;;;;;;;;;;5048430;28;20032;-65
2022/07/29 12:20:29;;;;;;;6.10;2.90;;;;;;;;;;5052549;28;20465;-65
2022/07/29 12:22:55;;;;;;;6.18;3.10;;;;;;;;;;5033883;28;20072;-64
2022/07/29 12:25:23;;;;;;;6.53;2.80;;;;;;;;;;5032657;28;20091;-64
2022/07/29 12:27:59;;;;;;;9.48;3.00;;;;;;;;;;5044297;28;20056;-64
2022/07/29 12:30:35;;;;;;;5.78;3.00;;;;;;;;;;5040282;28;20128;-64
2022/07/29 12:33:01;;;;;;;5.65;2.90;;;;;;;;;;5031758;28;20103;-65
2022/07/29 12:35:26;;;;;;;5.68;2.67;;;;;;;;;;5043814;28;20466;-63
2022/07/29 12:37:52;;;;;;;4.97;2.63;;;;;;;;;;5051596;28;20032;-64
2022/07/29 12:40:20;;;;;;;8.95;3.25;;;;;;;;;;5043418;28;20508;-63
2022/07/29 12:43:05;;;;;;;5.30;2.60;;;;;;;;;;5039675;28;20059;-64
2022/07/29 12:45:31;;;;;;;6.22;2.80;;;;;;;;;;5051071;28;20025;-64
2022/07/29 12:47:57;;;;;;;6.43;3.00;;;;;;;;;;5035598;28;20102;-64
2022/07/29 12:50:24;;;;;;;5.93;2.75;;;;;;;;;;5039233;28;20032;-65
2022/07/29 12:52:50;;;;;;;9.52;3.10;;;;;;;;;;5040027;28;20462;-64
2022/07/29 12:55:15;;;;;;;7.93;2.90;;;;;;;;;;5051937;28;20044;-64
2022/07/29 12:57:50;;;;;;;7.05;2.80;;;;;;;;;;5046366;28;20053;-63
2022/07/29 13:00:16;;;;;;;5.45;2.67;;;;;;;;;;5046990;28;20090;-63
2022/07/29 13:02:43;;;;;;;5.28;2.75;;;;;;;;;;5051036;28;20037;-63
2022/07/29 13:05:11;;;;;;;7.47;2.70;;;;;;;;;;5037859;28;20041;-64
2022/07/29 13:07:37;;;;;;;5.57;2.55;;;;;;;;;;5031956;28;20029;-64
2022/07/29 13:10:18;;;;;;;7.78;2.80;;;;;;;;;;5033785;28;20060;-63
2022/07/29 13:13:07;;;;;;;12.88;2.67;;;;;;;;;;5037828;28;20080;-63
2022/07/29 13:15:33;;;;;;;10.63;2.60;;;;;;;;;;5032397;28;20175;-62
2022/07/29 13:17:59;;;;;;;5.07;2.42;;;;;;;;;;5031661;28;20459;-63
2022/07/29 13:20:29;;;;;;;8.15;2.45;;;;;;;;;;5041793;28;20045;-63
2022/07/29 13:22:57;;;;;;;5.00;2.90;;;;;;;;;;5051092;28;20041;-63
2022/07/29 13:25:31;;;;;;;9.02;2.80;;;;;;;;;;5051078;28;20096;-63
2022/07/29 13:27:57;;;;;;;7.03;2.55;;;;;;;;;;5050910;28;20033;-63
2022/07/29 13:30:23;;;;;;;5.47;3.13;;;;;;;;;;5051671;28;20033;-63
2022/07/29 13:32:50;;;;;;;7.93;2.72;;;;;;;;;;5051659;28;20163;-63
2022/07/29 13:35:16;;;;;;;6.47;2.72;;;;;;;;;;5037923;28;20466;-62
2022/07/29 13:37:41;;;;;;;7.55;2.85;;;;;;;;;;5031862;28;20036;-63
2022/07/29 13:40:08;;;;;;;4.32;2.80;;;;;;;;;;5031020;28;20038;-63
2022/07/29 13:42:33;;;;;;;6.63;2.72;;;;;;;;;;5031698;28;20033;-63
2022/07/29 13:45:00;;;;;;;5.82;2.83;;;;;;;;;;5030960;28;20087;-62
2022/07/29 13:47:26;;;;;;;6.05;2.67;;;;;;;;;;5031477;28;20439;-62
2022/07/29 13:49:53;;;;;;;6.47;2.70;;;;;;;;;;5039009;28;20032;-64
2022/07/29 13:52:19;;;;;;;7.60;2.97;;;;;;;;;;5050273;28;20049;-63
2022/07/29 13:54:45;;;;;;;7.22;2.78;;;;;;;;;;5051953;28;20134;-62
2022/07/29 13:57:11;;;;;;;6.53;2.60;;;;;;;;;;5048342;28;20049;-62
2022/07/29 13:59:36;;;;;;;6.72;2.55;;;;;;;;;;5055154;28;20056;-63
2022/07/29 14:02:03;;;;;;;4.55;2.60;;;;;;;;;;5054899;28;20073;-63
2022/07/29 14:04:28;;;;;;;10.25;2.90;;;;;;;;;;5055465;28;20025;-63
2022/07/29 14:06:53;;;;;;;5.38;2.65;;;;;;;;;;5054134;28;20040;-65
2022/07/29 14:09:19;;;;;;;5.13;2.55;;;;;;;;;;5054667;28;20037;-67
2022/07/29 14:11:45;;;;;;;7.60;2.60;;;;;;;;;;5043565;28;20335;-67
2022/07/29 14:14:11;;;;;;;6.38;2.55;;;;;;;;;;5034836;28;20033;-68
2022/07/29 14:16:36;;;;;;;5.78;2.58;;;;;;;;;;5035604;28;20466;-63
2022/07/29 14:19:02;;;;;;;7.28;2.50;;;;;;;;;;5043538;28;20037;-62
2022/07/29 14:21:28;;;;;;;8.68;3.03;;;;;;;;;;5052688;28;20035;-62
2022/07/29 14:23:54;;;;;;;6.60;2.60;;;;;;;;;;5039866;28;20029;-62
2022/07/29 14:26:21;;;;;;;5.50;2.67;;;;;;;;;;5049760;28;20040;-63
2022/07/29 14:28:47;;;;;;;4.47;2.40;;;;;;;;;;5035537;28;20479;-63
2022/07/29 14:31:12;;;;;;;7.57;2.97;;;;;;;;;;5038521;28;20124;-63
2022/07/29 14:33:37;;;;;;;6.80;2.45;;;;;;;;;;5048927;28;20032;-62
2022/07/29 14:36:03;;;;;;;9.00;2.53;;;;;;;;;;5039079;28;20398;-62
2022/07/29 14:38:28;;;;;;;6.32;2.50;;;;;;;;;;5038303;28;20025;-63
2022/07/29 14:40:54;;;;;;;5.32;2.70;;;;;;;;;;5051348;28;20037;-62
2022/07/29 14:43:19;;;;;;;6.18;2.55;;;;;;;;;;5041803;28;20025;-62
2022/07/29 14:45:45;;;;;;;7.32;2.45;;;;;;;;;;5034350;28;20029;-62
2022/07/29 14:48:11;;;;;;;4.68;2.45;;;;;;;;;;5046710;28;20025;-62
2022/07/29 14:50:37;;;;;;;5.32;2.22;;;;;;;;;;5049186;28;20033;-62
2022/07/29 14:53:02;;;;;;;6.25;2.45;;;;;;;;;;5042737;28;20033;-62
2022/07/29 14:55:28;;;;;;;6.40;2.35;;;;;;;;;;5051135;28;20032;-61